Melville, Louisiana
Current Conditions -  °F | °C
As of 8:35 PM on Saturday 25 Oct 2014 (Local Time) from KHZR Reporting Station
Clear Clear  
Wind Chill: 62°   Ceiling: Unl
Heat Index: 62°   Visibility: 10mi
Dew Point: 57°   Wind: 0mph
Humidity: 84%   Direction: NA
Pressure: 30.1"   Gusts: NA
Location:  30.69°N, 91.74°W
Report Text: KHZR 260135Z AUTO 00000KT 10SM CLR 17/14 A3010 RMK AO2 T01660139
Loading
Personal Weather Stations






























Interactive Weather Map
Tropical Storm Tracking
New forecast layout! Learn more

10-Day Weather Forecast

Advertisements
Track Severe Weather on mobile